Buoy 44837

sailwx.info

Track history (hours):
 
Tides and Currents Weather Stations Pressure Air Temp Water Temp Dewpoint Dewpoint Depression Visibility Wind Speed Wind Dir Waves Ship Positions

Drifting buoy 44837

Last reported at 2014-Nov-23 05:00 UTC. Time now 2014-Nov-23 06:00 UTC.
Position N 45°55' W 024°59'.

Barometer 1014.5 mb
Water temperature 12.6 ° C

Date/timePositionNaut miles runAvg speedWind from/ knotsBaromVisibWave heightAir tempDewpointWater temp
2014-Nov-23 05:00N 45°55' W 024°59'1 0.7 1014.5 12.6
2014-Nov-23 04:00N 45°55' W 025°00'0 0.0 1015.9 12.6
2014-Nov-23 03:00N 45°55' W 025°00'1 0.7 1016.4 12.5
2014-Nov-23 02:00N 45°54' W 025°01'0 0.4 1017.6 12.6
2014-Nov-23 01:00N 45°54' W 025°01'1 1.0 1019.5 12.6
2014-Nov-23 00:00N 45°53' W 025°02'0 0.4 1020.3 12.7
2014-Nov-22 23:00N 45°53' W 025°03'1 0.8 1021.5 12.7
2014-Nov-22 22:00N 45°53' W 025°04'0 0.4 1021.7 12.9
2014-Nov-22 21:00N 45°53' W 025°05'1 0.7 1022.3 12.9
2014-Nov-22 20:00N 45°54' W 025°05'0 0.4 1023.7 12.9
2014-Nov-22 19:00N 45°54' W 025°06'0 0.0 1024.2 12.9
2014-Nov-22 18:00N 45°54' W 025°06'1 0.7 1024.6 12.7
2014-Nov-22 17:00N 45°55' W 025°07'0 0.4 1025.1 12.7
2014-Nov-22 16:00N 45°55' W 025°07'1 0.7 1024.8 12.7
2014-Nov-22 15:00N 45°55' W 025°08'1 0.7 1024.8 12.7
2014-Nov-22 14:00N 45°56' W 025°08'1 0.7 1025.9 12.7
2014-Nov-22 13:00N 45°56' W 025°09'1 0.7 1026.6 12.7
2014-Nov-22 12:00N 45°57' W 025°10'2 1.0 1026.9 12.6
2014-Nov-22 10:00N 45°59' W 025°11'1 0.7 1027.0 12.6
2014-Nov-22 09:00N 45°59' W 025°11'1 0.6 1026.0 12.6
2014-Nov-22 08:00N 46°00' W 025°11'1 1.3 1025.3 12.6
2014-Nov-22 07:00N 46°01' W 025°12'1 0.7 1024.9 12.6
2014-Nov-22 06:00N 46°02' W 025°13'1 1.2 1024.7 12.7
2014-Nov-22 05:00N 46°03' W 025°13'1 0.7 1024.7 12.7
2014-Nov-22 04:00N 46°04' W 025°13'1 1.3 1025.1 12.7
2014-Nov-22 03:00N 46°05' W 025°14'1 1.2 1024.2 12.7
2014-Nov-22 02:00N 46°06' W 025°14'1 1.3 1024.0 12.7
2014-Nov-22 01:00N 46°07' W 025°14'1 0.6 1023.7 12.8
2014-Nov-22 00:00N 46°08' W 025°14'1 1.3 1023.7 12.9
2014-Nov-21 23:00N 46°09' W 025°15'1 1.2 1023.1 12.9
2014-Nov-21 22:00N 46°10' W 025°15'1 1.2 1022.5 13.0
2014-Nov-21 21:00N 46°11' W 025°15'1 1.2 1021.6 13.0
2014-Nov-21 20:00N 46°13' W 025°15'1 0.6 1020.8 13.0
2014-Nov-21 19:00N 46°13' W 025°15'2 1.8 1020.5 13.0
2014-Nov-21 18:00N 46°15' W 025°14'1 1.2 1020.0 13.0
2014-Nov-21 17:00N 46°16' W 025°14'1 1.2 1019.0 13.1
2014-Nov-21 16:00N 46°17' W 025°14'1 1.3 1018.0 13.1
2014-Nov-21 15:00N 46°19' W 025°15'1 1.2 1018.0 13.1
2014-Nov-21 14:00N 46°20' W 025°15'1 1.2 1018.0 13.1
2014-Nov-21 13:00N 46°21' W 025°15'1 1.3 1017.8 13.1
2014-Nov-21 12:00N 46°22' W 025°16'1 1.3 1018.0 13.1
2014-Nov-21 11:00N 46°23' W 025°16'1 0.7 1017.4 13.1
2014-Nov-21 10:00N 46°24' W 025°17'1 0.7 1016.4 13.1
2014-Nov-21 09:00N 46°25' W 025°17'1 1.3 1015.6 13.1
2014-Nov-21 08:00N 46°26' W 025°17'1 0.6 1015.8 13.1
2014-Nov-21 07:00N 46°26' W 025°17'1 1.3 1014.9 13.2
2014-Nov-21 06:00N 46°28' W 025°16'1 0.6 1014.3 13.2
2014-Nov-21 05:00N 46°28' W 025°16'1 1.3 1013.5 13.2
2014-Nov-21 04:00N 46°29' W 025°16'1 1.3 1013.6 13.3
2014-Nov-21 03:00N 46°31' W 025°15'2 1.8 1012.8 13.3
2014-Nov-21 02:00N 46°32' W 025°15'1 1.2 1012.2 13.3
2014-Nov-21 01:00N 46°34' W 025°15'1 1.3 1011.2 13.3
2014-Nov-21 00:00N 46°35' W 025°16'1 1.3 1010.4 13.4
2014-Nov-20 23:00N 46°36' W 025°16'1 1.3 1010.0 13.4
2014-Nov-20 22:00N 46°37' W 025°17'1 0.7 1009.3 13.4
2014-Nov-20 21:00N 46°38' W 025°17'1 0.7 1008.0 13.4
2014-Nov-20 20:00N 46°38' W 025°18'0 0.0 1008.6 13.5
2014-Nov-20 19:00N 46°38' W 025°18'1 0.7 1007.4 13.5
2014-Nov-20 18:00N 46°39' W 025°19'1 0.6 1006.8 13.5
2014-Nov-20 17:00N 46°40' W 025°19'0 0.4 1006.6 13.5
2014-Nov-20 16:00N 46°40' W 025°19'1 0.6 1006.8 13.5
2014-Nov-20 15:00N 46°40' W 025°19'0 0.4 1006.1 13.5
2014-Nov-20 14:00N 46°40' W 025°20'1 0.6 1005.3 13.5
2014-Nov-20 13:00N 46°41' W 025°20'1 0.6 1005.4 13.5
2014-Nov-20 12:00N 46°41' W 025°20'1 0.7 1005.4 13.5
2014-Nov-20 11:00N 46°42' W 025°20'1 0.6 1005.9 13.5
2014-Nov-20 10:00N 46°43' W 025°20'1 0.6 1005.7 13.6
2014-Nov-20 09:00N 46°43' W 025°20'1 0.6 1004.6 13.6
2014-Nov-20 08:00N 46°44' W 025°20'1 0.6 1003.3 13.6
2014-Nov-20 07:00N 46°44' W 025°20'1 0.6 1003.6 13.7
2014-Nov-20 06:00N 46°45' W 025°20'1 0.6 1002.7 13.7
2014-Nov-20 05:00N 46°46' W 025°20'1 0.6 1002.5 13.7
2014-Nov-20 04:00N 46°46' W 025°20'1 1.2 1002.3 13.7
2014-Nov-20 03:00N 46°47' W 025°20'1 0.6 1002.4 13.8
2014-Nov-20 02:00N 46°48' W 025°20'1 0.6 1002.5 13.7
2014-Nov-20 01:00N 46°49' W 025°20'1 1.2 1002.7 13.8
2014-Nov-20 00:00N 46°50' W 025°20'1 0.6 1002.8 13.8
2014-Nov-19 23:00N 46°50' W 025°20'1 1.2 1002.5 13.8
2014-Nov-19 22:00N 46°52' W 025°20'1 0.7 1002.2 13.8
2014-Nov-19 21:00N 46°52' W 025°21'1 1.3 1001.1 13.8
2014-Nov-19 20:00N 46°53' W 025°22'1 0.6 1000.1 13.8
2014-Nov-19 19:00N 46°54' W 025°22'1 1.3 999.4 13.8
2014-Nov-19 18:00N 46°55' W 025°22'1 0.7 999.0 13.8
2014-Nov-19 17:00N 46°56' W 025°23'1 1.2 998.0 13.7
2014-Nov-19 16:00N 46°57' W 025°23'1 1.3 997.3 13.7
2014-Nov-19 15:00N 46°58' W 025°23'1 0.7 996.7 13.7
2014-Nov-19 14:00N 46°59' W 025°24'2 1.1 996.4 13.6
2014-Nov-19 12:00N 47°01' W 025°26'3 1.4 996.2 13.6
2014-Nov-19 10:00N 47°02' W 025°29'2 1.7 994.9 13.6
2014-Nov-19 09:00N 47°04' W 025°31'1 1.0 994.3 13.6
2014-Nov-19 08:00N 47°04' W 025°32'1 1.2 993.8 13.6
2014-Nov-19 07:00N 47°04' W 025°34'1 1.0 993.0 13.6
2014-Nov-19 06:00N 47°05' W 025°35'1 1.0 992.8 13.7
2014-Nov-19 05:00N 47°05' W 025°36'1 1.0 992.6 13.7
2014-Nov-19 04:00N 47°06' W 025°37'1 1.0 992.3 13.7
2014-Nov-19 03:00N 47°07' W 025°38'1 1.3 991.9 13.7
2014-Nov-19 02:00N 47°08' W 025°39'1 1.0 991.9 13.8
2014-Nov-19 01:00N 47°08' W 025°40'2 1.7 991.8 13.8
2014-Nov-19 00:00N 47°10' W 025°42'1 1.4 991.9 13.8
2014-Nov-18 23:00N 47°10' W 025°44'2 1.7 991.9 13.8
2014-Nov-18 22:00N 47°11' W 025°46'1 1.4 992.0 13.8
2014-Nov-18 21:00N 47°12' W 025°47'2 1.7 991.9 13.8
2014-Nov-18 20:00N 47°13' W 025°50'1 1.4 992.2 13.7
2014-Nov-18 19:00N 47°13' W 025°52'1 1.4 992.0 13.7
2014-Nov-18 18:00N 47°14' W 025°53'1 1.2 992.0 13.7
2014-Nov-18 17:00N 47°14' W 025°55'1 1.4 991.9 13.7
2014-Nov-18 16:00N 47°14' W 025°57'1 1.0 991.4 13.8
2014-Nov-18 15:00N 47°15' W 025°58'1 1.2 991.3 13.8
2014-Nov-18 14:00N 47°15' W 026°00'1 1.2 991.1 13.8
2014-Nov-18 13:00N 47°15' W 026°02'1 1.4 991.4 13.9
2014-Nov-18 12:00N 47°16' W 026°04'1 0.8 991.7 13.9
2014-Nov-18 11:00N 47°16' W 026°05'1 0.8 991.8 14.0
2014-Nov-18 10:00N 47°16' W 026°06'1 1.0 991.7 14.0
2014-Nov-18 09:00N 47°16' W 026°07'1 0.8 991.4 14.0
2014-Nov-18 08:00N 47°16' W 026°08'1 0.8 991.2 13.9
2014-Nov-18 07:00N 47°16' W 026°10'1 0.7 991.2 13.7
2014-Nov-18 06:00N 47°17' W 026°10'1 0.8 990.8 13.5
2014-Nov-18 05:00N 47°17' W 026°11'0 0.4 990.7 13.5
2014-Nov-18 04:00N 47°17' W 026°12'1 0.7 990.8 13.6
2014-Nov-18 03:00N 47°17' W 026°13'0 0.4 990.8 13.5
2014-Nov-18 02:00N 47°17' W 026°13'0 0.4 991.3 13.7
2014-Nov-18 01:00N 47°17' W 026°14'1 0.7 991.5 13.6
2014-Nov-18 00:00N 47°18' W 026°14'0 0.4 991.3 13.6
2014-Nov-17 23:00N 47°18' W 026°15'1 0.7 991.2 13.6
2014-Nov-17 22:00N 47°19' W 026°16'1 0.7 990.7 13.6
2014-Nov-17 21:00N 47°19' W 026°16'0 0.0 990.6 13.5
2014-Nov-17 20:00N 47°19' W 026°16'0 0.0 990.8 13.9
2014-Nov-17 19:00N 47°19' W 026°16'1 0.6 990.7 14.0
2014-Nov-17 18:00N 47°20' W 026°16'0 0.0 990.6 14.0
2014-Nov-17 17:00N 47°20' W 026°16'1 0.2 991.0 13.9
2014-Nov-17 14:00N 47°20' W 026°16'1 0.6 991.7 14.1
2014-Nov-17 13:00N 47°21' W 026°16'0 0.0 993.6 14.1
2014-Nov-17 12:00N 47°21' W 026°16'0 0.4 994.7 14.2
2014-Nov-17 11:00N 47°21' W 026°16'1 0.7 994.9 14.2
2014-Nov-17 10:00N 47°20' W 026°17'1 1.2 995.2 14.2
2014-Nov-17 09:00N 47°19' W 026°17'1 0.6 995.4 14.1
2014-Nov-17 08:00N 47°19' W 026°17'1 1.2 995.8 14.1
2014-Nov-17 07:00N 47°17' W 026°17'1 0.7 996.4 13.9
2014-Nov-17 06:00N 47°17' W 026°16'1 1.2 997.3 13.3
2014-Nov-17 05:00N 47°16' W 026°16'2 1.8 998.1 13.2
2014-Nov-17 04:00N 47°14' W 026°16'1 1.3 999.5 13.2
2014-Nov-17 03:00N 47°13' W 026°16'1 1.2 1000.7 13.4
2014-Nov-17 02:00N 47°11' W 026°16'1 1.2 1002.4 13.0
2014-Nov-17 01:00N 47°10' W 026°16'1 1.3 1003.7 13.1
2014-Nov-17 00:00N 47°09' W 026°15'1 0.6 1004.8 13.1
2014-Nov-16 23:00N 47°08' W 026°15'1 1.2 1006.1 13.0
2014-Nov-16 22:00N 47°07' W 026°15'1 1.3 1007.0 13.2
2014-Nov-16 21:00N 47°06' W 026°16'1 1.2 1008.0 12.9
2014-Nov-16 20:00N 47°05' W 026°16'1 1.3 1008.7 12.8
2014-Nov-16 19:00N 47°04' W 026°16'1 0.6 1009.1 12.9
2014-Nov-16 18:00N 47°03' W 026°16'1 1.2 1009.9 13.0
2014-Nov-16 17:00N 47°02' W 026°16'1 0.6 1010.7 13.1
2014-Nov-16 16:00N 47°01' W 026°16'1 0.6 1011.6 13.1
2014-Nov-16 15:00N 47°01' W 026°16'1 0.7 1012.3 12.8
2014-Nov-16 14:00N 47°00' W 026°17'1 0.7 1012.8 12.6
2014-Nov-16 13:00N 46°59' W 026°17'1 0.7 1013.7 12.7
2014-Nov-16 12:00N 46°59' W 026°18'0 0.4 1014.7 12.6
2014-Nov-16 11:00N 46°59' W 026°19'1 0.7 1015.2 12.6
2014-Nov-16 10:00N 46°58' W 026°19'1 0.7 1015.6 12.8
2014-Nov-16 09:00N 46°58' W 026°20'1 0.7 1015.9 12.7
2014-Nov-16 08:00N 46°57' W 026°20'1 0.7 1015.7 12.6
2014-Nov-16 07:00N 46°56' W 026°21'1 0.7 1015.6 12.6
2014-Nov-16 06:00N 46°56' W 026°22'0 0.4 1015.2 12.6
2014-Nov-16 05:00N 46°56' W 026°22'1 0.7 1015.8 12.6
2014-Nov-16 04:00N 46°55' W 026°23'0 0.4 1015.7 12.6
2014-Nov-16 03:00N 46°55' W 026°23'1 0.7 1016.3 12.6
2014-Nov-16 02:00N 46°55' W 026°24'0 0.4 1016.3 12.6
2014-Nov-16 01:00N 46°55' W 026°25'0 0.4 1016.2 12.6
2014-Nov-16 00:00N 46°55' W 026°25'1 0.8 1016.5 12.6
2014-Nov-15 23:00N 46°55' W 026°26'1 0.7 1016.4 12.6
2014-Nov-15 22:00N 46°54' W 026°27'1 0.8 1016.9 12.6
2014-Nov-15 21:00N 46°54' W 026°28'1 1.2 1017.0 12.6
2014-Nov-15 20:00N 46°54' W 026°30'1 1.0 1017.1 12.6
2014-Nov-15 19:00N 46°53' W 026°31'1 0.8 1016.6 12.6
2014-Nov-15 18:00N 46°53' W 026°32'1 1.0 1016.5 12.6
2014-Nov-15 17:00N 46°53' W 026°34'1 0.8 1016.2 12.6
2014-Nov-15 16:00N 46°53' W 026°35'1 1.0 1015.5 12.6
2014-Nov-15 15:00N 46°52' W 026°36'1 0.8 1015.8 12.7
2014-Nov-15 14:00N 46°52' W 026°37'1 0.7 1015.6 12.8
2014-Nov-15 13:00N 46°52' W 026°38'1 0.8 1016.2 12.8
2014-Nov-15 12:00N 46°52' W 026°39'1 0.8 1016.3 12.8
2014-Nov-15 11:00N 46°52' W 026°40'1 1.2 1016.2 12.8
2014-Nov-15 10:00N 46°52' W 026°42'1 0.8 1015.8 12.8
2014-Nov-15 09:00N 46°52' W 026°43'1 0.8 1015.1 12.8
2014-Nov-15 08:00N 46°52' W 026°44'1 1.4 1014.6 12.8
2014-Nov-15 07:00N 46°52' W 026°46'1 1.2 1014.7 12.8
2014-Nov-15 06:00N 46°52' W 026°48'1 1.4 1014.1 12.8
2014-Nov-15 05:00N 46°53' W 026°50'1 1.2 1013.2 12.8
2014-Nov-15 04:00N 46°53' W 026°52'1 0.8 1013.1 12.8
2014-Nov-15 03:00N 46°53' W 026°53'0 0.4 1012.2 12.8
2014-Nov-15 02:00N 46°53' W 026°53'1 0.8 1012.0 12.9
2014-Nov-15 01:00N 46°53' W 026°55'1 0.8 1011.9 12.9
2014-Nov-15 00:00N 46°53' W 026°56'0 0.4 1011.6 13.0
2014-Nov-14 23:00N 46°53' W 026°56'1 1.0 1011.0 13.1
2014-Nov-14 22:00N 46°53' W 026°58'1 1.0 1010.2 13.1
2014-Nov-14 21:00N 46°54' W 026°59'1 0.8 1009.6 13.2
2014-Nov-14 20:00N 46°54' W 027°00'1 1.0 1008.9 13.3
2014-Nov-14 19:00N 46°55' W 027°01'1 1.0 1008.1 13.3
2014-Nov-14 18:00N 46°55' W 027°02'1 0.8 1007.3 13.3
2014-Nov-14 17:00N 46°55' W 027°04'1 1.0 1006.2 13.3
2014-Nov-14 16:00N 46°56' W 027°05'0 0.4 1005.5 13.3
2014-Nov-14 15:00N 46°56' W 027°05'1 1.0 1005.1 13.3
2014-Nov-14 14:00N 46°56' W 027°07'0 0.4 1004.8 13.3
2014-Nov-14 13:00N 46°56' W 027°07'1 1.0 1004.8 13.2
2014-Nov-14 12:00N 46°57' W 027°08'1 0.7 1004.5 13.2
2014-Nov-14 11:00N 46°58' W 027°09'1 1.0 1003.7 13.1
2014-Nov-14 10:00N 46°58' W 027°10'1 0.8 1003.1 13.1
2014-Nov-14 09:00N 46°58' W 027°11'1 1.0 1002.3 13.1
2014-Nov-14 08:00N 46°59' W 027°13'1 0.8 1001.7 13.1
2014-Nov-14 07:00N 46°59' W 027°14'1 0.7 1000.8 13.0
2014-Nov-14 06:00N 46°59' W 027°14'1 1.0 1000.3 13.0
2014-Nov-14 05:00N 47°00' W 027°16'0 0.4 999.5 13.0
2014-Nov-14 04:00N 47°00' W 027°16'1 1.0 998.9 13.0
2014-Nov-14 03:00N 47°01' W 027°17'0 0.0 998.3 13.0
2014-Nov-14 02:00N 47°01' W 027°17'1 0.7 997.7 12.9
2014-Nov-14 01:00N 47°01' W 027°18'1 0.7 997.0 12.9
2014-Nov-14 00:00N 47°02' W 027°19'1 0.6 995.7 13.0
2014-Nov-13 23:00N 47°02' W 027°19'1 1.5 994.7 13.0
2014-Nov-13 22:00N 47°04' W 027°20'1 0.7 993.6 13.0
2014-Nov-13 21:00N 47°04' W 027°20'1 0.7 992.6 13.0
2014-Nov-13 20:00N 47°05' W 027°21'1 0.8 991.7 13.1
2014-Nov-13 19:00N 47°05' W 027°22'1 1.0 990.9 13.0
2014-Nov-13 18:00N 47°05' W 027°23'0 0.4 990.1 13.0
2014-Nov-13 17:00N 47°05' W 027°24'1 1.0 989.4 13.0
2014-Nov-13 16:00N 47°06' W 027°25'0 0.4 988.5 12.9
2014-Nov-13 15:00N 47°06' W 027°26'1 0.7 988.0 12.9
2014-Nov-13 14:00N 47°07' W 027°26'0 0.4 987.3 12.9
2014-Nov-13 13:00N 47°07' W 027°27'0 0.4 986.7 13.0
2014-Nov-13 12:00N 47°07' W 027°28'1 0.7 986.3 13.2
2014-Nov-13 11:00N 47°07' W 027°28'1 0.6 985.8 13.1
2014-Nov-13 10:00N 47°08' W 027°28'1 1.3 985.5 13.2
2014-Nov-13 09:00N 47°09' W 027°29'1 1.0 984.7 13.2
2014-Nov-13 08:00N 47°10' W 027°30'1 1.0 984.4 13.4
2014-Nov-13 07:00N 47°10' W 027°31'1 0.8 983.8 13.4
2014-Nov-13 06:00N 47°10' W 027°32'1 1.4 983.8 13.4
2014-Nov-13 05:00N 47°11' W 027°34'   983.8 13.4
Track history (hours):
 
Tides and Currents Weather Stations Pressure Air Temp Water Temp Dewpoint Dewpoint Depression Visibility Wind Speed Wind Dir Waves Ship Positions

Drifting buoy 44837

Last reported at 2014-Nov-23 05:00 UTC. Time now 2014-Nov-23 06:00 UTC.
Position N 45°55' W 024°59'.

Barometer 1014.5 mb
Water temperature 12.6 ° C

Date/timePositionNaut miles runAvg speedWind from/ knotsBaromVisibWave heightAir tempDewpointWater temp
2014-Nov-23 05:00N 45°55' W 024°59'1 0.7 1014.5 12.6
2014-Nov-23 04:00N 45°55' W 025°00'0 0.0 1015.9 12.6
2014-Nov-23 03:00N 45°55' W 025°00'1 0.7 1016.4 12.5
2014-Nov-23 02:00N 45°54' W 025°01'0 0.4 1017.6 12.6
2014-Nov-23 01:00N 45°54' W 025°01'1 1.0 1019.5 12.6
2014-Nov-23 00:00N 45°53' W 025°02'0 0.4 1020.3 12.7
2014-Nov-22 23:00N 45°53' W 025°03'1 0.8 1021.5 12.7
2014-Nov-22 22:00N 45°53' W 025°04'0 0.4 1021.7 12.9
2014-Nov-22 21:00N 45°53' W 025°05'1 0.7 1022.3 12.9
2014-Nov-22 20:00N 45°54' W 025°05'0 0.4 1023.7 12.9
2014-Nov-22 19:00N 45°54' W 025°06'0 0.0 1024.2 12.9
2014-Nov-22 18:00N 45°54' W 025°06'1 0.7 1024.6 12.7
2014-Nov-22 17:00N 45°55' W 025°07'0 0.4 1025.1 12.7
2014-Nov-22 16:00N 45°55' W 025°07'1 0.7 1024.8 12.7
2014-Nov-22 15:00N 45°55' W 025°08'1 0.7 1024.8 12.7
2014-Nov-22 14:00N 45°56' W 025°08'1 0.7 1025.9 12.7
2014-Nov-22 13:00N 45°56' W 025°09'1 0.7 1026.6 12.7
2014-Nov-22 12:00N 45°57' W 025°10'2 1.0 1026.9 12.6
2014-Nov-22 10:00N 45°59' W 025°11'1 0.7 1027.0 12.6
2014-Nov-22 09:00N 45°59' W 025°11'1 0.6 1026.0 12.6
2014-Nov-22 08:00N 46°00' W 025°11'1 1.3 1025.3 12.6
2014-Nov-22 07:00N 46°01' W 025°12'1 0.7 1024.9 12.6
2014-Nov-22 06:00N 46°02' W 025°13'1 1.2 1024.7 12.7
2014-Nov-22 05:00N 46°03' W 025°13'1 0.7 1024.7 12.7
2014-Nov-22 04:00N 46°04' W 025°13'1 1.3 1025.1 12.7
2014-Nov-22 03:00N 46°05' W 025°14'1 1.2 1024.2 12.7
2014-Nov-22 02:00N 46°06' W 025°14'1 1.3 1024.0 12.7
2014-Nov-22 01:00N 46°07' W 025°14'1 0.6 1023.7 12.8
2014-Nov-22 00:00N 46°08' W 025°14'1 1.3 1023.7 12.9
2014-Nov-21 23:00N 46°09' W 025°15'1 1.2 1023.1 12.9
2014-Nov-21 22:00N 46°10' W 025°15'1 1.2 1022.5 13.0
2014-Nov-21 21:00N 46°11' W 025°15'1 1.2 1021.6 13.0
2014-Nov-21 20:00N 46°13' W 025°15'1 0.6 1020.8 13.0
2014-Nov-21 19:00N 46°13' W 025°15'2 1.8 1020.5 13.0
2014-Nov-21 18:00N 46°15' W 025°14'1 1.2 1020.0 13.0
2014-Nov-21 17:00N 46°16' W 025°14'1 1.2 1019.0 13.1
2014-Nov-21 16:00N 46°17' W 025°14'1 1.3 1018.0 13.1
2014-Nov-21 15:00N 46°19' W 025°15'1 1.2 1018.0 13.1
2014-Nov-21 14:00N 46°20' W 025°15'1 1.2 1018.0 13.1
2014-Nov-21 13:00N 46°21' W 025°15'1 1.3 1017.8 13.1
2014-Nov-21 12:00N 46°22' W 025°16'1 1.3 1018.0 13.1
2014-Nov-21 11:00N 46°23' W 025°16'1 0.7 1017.4 13.1
2014-Nov-21 10:00N 46°24' W 025°17'1 0.7 1016.4 13.1
2014-Nov-21 09:00N 46°25' W 025°17'1 1.3 1015.6 13.1
2014-Nov-21 08:00N 46°26' W 025°17'1 0.6 1015.8 13.1
2014-Nov-21 07:00N 46°26' W 025°17'1 1.3 1014.9 13.2
2014-Nov-21 06:00N 46°28' W 025°16'1 0.6 1014.3 13.2
2014-Nov-21 05:00N 46°28' W 025°16'1 1.3 1013.5 13.2
2014-Nov-21 04:00N 46°29' W 025°16'1 1.3 1013.6 13.3
2014-Nov-21 03:00N 46°31' W 025°15'2 1.8 1012.8 13.3
2014-Nov-21 02:00N 46°32' W 025°15'1 1.2 1012.2 13.3
2014-Nov-21 01:00N 46°34' W 025°15'1 1.3 1011.2 13.3
2014-Nov-21 00:00N 46°35' W 025°16'1 1.3 1010.4 13.4
2014-Nov-20 23:00N 46°36' W 025°16'1 1.3 1010.0 13.4
2014-Nov-20 22:00N 46°37' W 025°17'1 0.7 1009.3 13.4
2014-Nov-20 21:00N 46°38' W 025°17'1 0.7 1008.0 13.4
2014-Nov-20 20:00N 46°38' W 025°18'0 0.0 1008.6 13.5
2014-Nov-20 19:00N 46°38' W 025°18'1 0.7 1007.4 13.5
2014-Nov-20 18:00N 46°39' W 025°19'1 0.6 1006.8 13.5
2014-Nov-20 17:00N 46°40' W 025°19'0 0.4 1006.6 13.5
2014-Nov-20 16:00N 46°40' W 025°19'1 0.6 1006.8 13.5
2014-Nov-20 15:00N 46°40' W 025°19'0 0.4 1006.1 13.5
2014-Nov-20 14:00N 46°40' W 025°20'1 0.6 1005.3 13.5
2014-Nov-20 13:00N 46°41' W 025°20'1 0.6 1005.4 13.5
2014-Nov-20 12:00N 46°41' W 025°20'1 0.7 1005.4 13.5
2014-Nov-20 11:00N 46°42' W 025°20'1 0.6 1005.9 13.5
2014-Nov-20 10:00N 46°43' W 025°20'1 0.6 1005.7 13.6
2014-Nov-20 09:00N 46°43' W 025°20'1 0.6 1004.6 13.6
2014-Nov-20 08:00N 46°44' W 025°20'1 0.6 1003.3 13.6
2014-Nov-20 07:00N 46°44' W 025°20'1 0.6 1003.6 13.7
2014-Nov-20 06:00N 46°45' W 025°20'1 0.6 1002.7 13.7
2014-Nov-20 05:00N 46°46' W 025°20'1 0.6 1002.5 13.7
2014-Nov-20 04:00N 46°46' W 025°20'1 1.2 1002.3 13.7
2014-Nov-20 03:00N 46°47' W 025°20'1 0.6 1002.4 13.8
2014-Nov-20 02:00N 46°48' W 025°20'1 0.6 1002.5 13.7
2014-Nov-20 01:00N 46°49' W 025°20'1 1.2 1002.7 13.8
2014-Nov-20 00:00N 46°50' W 025°20'1 0.6 1002.8 13.8
2014-Nov-19 23:00N 46°50' W 025°20'1 1.2 1002.5 13.8
2014-Nov-19 22:00N 46°52' W 025°20'1 0.7 1002.2 13.8
2014-Nov-19 21:00N 46°52' W 025°21'1 1.3 1001.1 13.8
2014-Nov-19 20:00N 46°53' W 025°22'1 0.6 1000.1 13.8
2014-Nov-19 19:00N 46°54' W 025°22'1 1.3 999.4 13.8
2014-Nov-19 18:00N 46°55' W 025°22'1 0.7 999.0 13.8
2014-Nov-19 17:00N 46°56' W 025°23'1 1.2 998.0 13.7
2014-Nov-19 16:00N 46°57' W 025°23'1 1.3 997.3 13.7
2014-Nov-19 15:00N 46°58' W 025°23'1 0.7 996.7 13.7
2014-Nov-19 14:00N 46°59' W 025°24'2 1.1 996.4 13.6
2014-Nov-19 12:00N 47°01' W 025°26'3 1.4 996.2 13.6
2014-Nov-19 10:00N 47°02' W 025°29'2 1.7 994.9 13.6
2014-Nov-19 09:00N 47°04' W 025°31'1 1.0 994.3 13.6
2014-Nov-19 08:00N 47°04' W 025°32'1 1.2 993.8 13.6
2014-Nov-19 07:00N 47°04' W 025°34'1 1.0 993.0 13.6
2014-Nov-19 06:00N 47°05' W 025°35'1 1.0 992.8 13.7
2014-Nov-19 05:00N 47°05' W 025°36'1 1.0 992.6 13.7
2014-Nov-19 04:00N 47°06' W 025°37'1 1.0 992.3 13.7
2014-Nov-19 03:00N 47°07' W 025°38'1 1.3 991.9 13.7
2014-Nov-19 02:00N 47°08' W 025°39'1 1.0 991.9 13.8
2014-Nov-19 01:00N 47°08' W 025°40'2 1.7 991.8 13.8
2014-Nov-19 00:00N 47°10' W 025°42'1 1.4 991.9 13.8
2014-Nov-18 23:00N 47°10' W 025°44'2 1.7 991.9 13.8
2014-Nov-18 22:00N 47°11' W 025°46'1 1.4 992.0 13.8
2014-Nov-18 21:00N 47°12' W 025°47'2 1.7 991.9 13.8
2014-Nov-18 20:00N 47°13' W 025°50'1 1.4 992.2 13.7
2014-Nov-18 19:00N 47°13' W 025°52'1 1.4 992.0 13.7
2014-Nov-18 18:00N 47°14' W 025°53'1 1.2 992.0 13.7
2014-Nov-18 17:00N 47°14' W 025°55'1 1.4 991.9 13.7
2014-Nov-18 16:00N 47°14' W 025°57'1 1.0 991.4 13.8
2014-Nov-18 15:00N 47°15' W 025°58'1 1.2 991.3 13.8
2014-Nov-18 14:00N 47°15' W 026°00'1 1.2 991.1 13.8
2014-Nov-18 13:00N 47°15' W 026°02'1 1.4 991.4 13.9
2014-Nov-18 12:00N 47°16' W 026°04'1 0.8 991.7 13.9
2014-Nov-18 11:00N 47°16' W 026°05'1 0.8 991.8 14.0
2014-Nov-18 10:00N 47°16' W 026°06'1 1.0 991.7 14.0
2014-Nov-18 09:00N 47°16' W 026°07'1 0.8 991.4 14.0
2014-Nov-18 08:00N 47°16' W 026°08'1 0.8 991.2 13.9
2014-Nov-18 07:00N 47°16' W 026°10'1 0.7 991.2 13.7
2014-Nov-18 06:00N 47°17' W 026°10'1 0.8 990.8 13.5
2014-Nov-18 05:00N 47°17' W 026°11'0 0.4 990.7 13.5
2014-Nov-18 04:00N 47°17' W 026°12'1 0.7 990.8 13.6
2014-Nov-18 03:00N 47°17' W 026°13'0 0.4 990.8 13.5
2014-Nov-18 02:00N 47°17' W 026°13'0 0.4 991.3 13.7
2014-Nov-18 01:00N 47°17' W 026°14'1 0.7 991.5 13.6
2014-Nov-18 00:00N 47°18' W 026°14'0 0.4 991.3 13.6
2014-Nov-17 23:00N 47°18' W 026°15'1 0.7 991.2 13.6
2014-Nov-17 22:00N 47°19' W 026°16'1 0.7 990.7 13.6
2014-Nov-17 21:00N 47°19' W 026°16'0 0.0 990.6 13.5
2014-Nov-17 20:00N 47°19' W 026°16'0 0.0 990.8 13.9
2014-Nov-17 19:00N 47°19' W 026°16'1 0.6 990.7 14.0
2014-Nov-17 18:00N 47°20' W 026°16'0 0.0 990.6 14.0
2014-Nov-17 17:00N 47°20' W 026°16'1 0.2 991.0 13.9
2014-Nov-17 14:00N 47°20' W 026°16'1 0.6 991.7 14.1
2014-Nov-17 13:00N 47°21' W 026°16'0 0.0 993.6 14.1
2014-Nov-17 12:00N 47°21' W 026°16'0 0.4 994.7 14.2
2014-Nov-17 11:00N 47°21' W 026°16'1 0.7 994.9 14.2
2014-Nov-17 10:00N 47°20' W 026°17'1 1.2 995.2 14.2
2014-Nov-17 09:00N 47°19' W 026°17'1 0.6 995.4 14.1
2014-Nov-17 08:00N 47°19' W 026°17'1 1.2 995.8 14.1
2014-Nov-17 07:00N 47°17' W 026°17'1 0.7 996.4 13.9
2014-Nov-17 06:00N 47°17' W 026°16'1 1.2 997.3 13.3
2014-Nov-17 05:00N 47°16' W 026°16'2 1.8 998.1 13.2
2014-Nov-17 04:00N 47°14' W 026°16'1 1.3 999.5 13.2
2014-Nov-17 03:00N 47°13' W 026°16'1 1.2 1000.7 13.4
2014-Nov-17 02:00N 47°11' W 026°16'1 1.2 1002.4 13.0
2014-Nov-17 01:00N 47°10' W 026°16'1 1.3 1003.7 13.1
2014-Nov-17 00:00N 47°09' W 026°15'1 0.6 1004.8 13.1
2014-Nov-16 23:00N 47°08' W 026°15'1 1.2 1006.1 13.0
2014-Nov-16 22:00N 47°07' W 026°15'1 1.3 1007.0 13.2
2014-Nov-16 21:00N 47°06' W 026°16'1 1.2 1008.0 12.9
2014-Nov-16 20:00N 47°05' W 026°16'1 1.3 1008.7 12.8
2014-Nov-16 19:00N 47°04' W 026°16'1 0.6 1009.1 12.9
2014-Nov-16 18:00N 47°03' W 026°16'1 1.2 1009.9 13.0
2014-Nov-16 17:00N 47°02' W 026°16'1 0.6 1010.7 13.1
2014-Nov-16 16:00N 47°01' W 026°16'1 0.6 1011.6 13.1
2014-Nov-16 15:00N 47°01' W 026°16'1 0.7 1012.3 12.8
2014-Nov-16 14:00N 47°00' W 026°17'1 0.7 1012.8 12.6
2014-Nov-16 13:00N 46°59' W 026°17'1 0.7 1013.7 12.7
2014-Nov-16 12:00N 46°59' W 026°18'0 0.4 1014.7 12.6
2014-Nov-16 11:00N 46°59' W 026°19'1 0.7 1015.2 12.6
2014-Nov-16 10:00N 46°58' W 026°19'1 0.7 1015.6 12.8
2014-Nov-16 09:00N 46°58' W 026°20'1 0.7 1015.9 12.7
2014-Nov-16 08:00N 46°57' W 026°20'1 0.7 1015.7 12.6
2014-Nov-16 07:00N 46°56' W 026°21'1 0.7 1015.6 12.6
2014-Nov-16 06:00N 46°56' W 026°22'0 0.4 1015.2 12.6
2014-Nov-16 05:00N 46°56' W 026°22'1 0.7 1015.8 12.6
2014-Nov-16 04:00N 46°55' W 026°23'0 0.4 1015.7 12.6
2014-Nov-16 03:00N 46°55' W 026°23'1 0.7 1016.3 12.6
2014-Nov-16 02:00N 46°55' W 026°24'0 0.4 1016.3 12.6
2014-Nov-16 01:00N 46°55' W 026°25'0 0.4 1016.2 12.6
2014-Nov-16 00:00N 46°55' W 026°25'1 0.8 1016.5 12.6
2014-Nov-15 23:00N 46°55' W 026°26'1 0.7 1016.4 12.6
2014-Nov-15 22:00N 46°54' W 026°27'1 0.8 1016.9 12.6
2014-Nov-15 21:00N 46°54' W 026°28'1 1.2 1017.0 12.6
2014-Nov-15 20:00N 46°54' W 026°30'1 1.0 1017.1 12.6
2014-Nov-15 19:00N 46°53' W 026°31'1 0.8 1016.6 12.6
2014-Nov-15 18:00N 46°53' W 026°32'1 1.0 1016.5 12.6
2014-Nov-15 17:00N 46°53' W 026°34'1 0.8 1016.2 12.6
2014-Nov-15 16:00N 46°53' W 026°35'1 1.0 1015.5 12.6
2014-Nov-15 15:00N 46°52' W 026°36'1 0.8 1015.8 12.7
2014-Nov-15 14:00N 46°52' W 026°37'1 0.7 1015.6 12.8
2014-Nov-15 13:00N 46°52' W 026°38'1 0.8 1016.2 12.8
2014-Nov-15 12:00N 46°52' W 026°39'1 0.8 1016.3 12.8
2014-Nov-15 11:00N 46°52' W 026°40'1 1.2 1016.2 12.8
2014-Nov-15 10:00N 46°52' W 026°42'1 0.8 1015.8 12.8
2014-Nov-15 09:00N 46°52' W 026°43'1 0.8 1015.1 12.8
2014-Nov-15 08:00N 46°52' W 026°44'1 1.4 1014.6 12.8
2014-Nov-15 07:00N 46°52' W 026°46'1 1.2 1014.7 12.8
2014-Nov-15 06:00N 46°52' W 026°48'1 1.4 1014.1 12.8
2014-Nov-15 05:00N 46°53' W 026°50'1 1.2 1013.2 12.8
2014-Nov-15 04:00N 46°53' W 026°52'1 0.8 1013.1 12.8
2014-Nov-15 03:00N 46°53' W 026°53'0 0.4 1012.2 12.8
2014-Nov-15 02:00N 46°53' W 026°53'1 0.8 1012.0 12.9
2014-Nov-15 01:00N 46°53' W 026°55'1 0.8 1011.9 12.9
2014-Nov-15 00:00N 46°53' W 026°56'0 0.4 1011.6 13.0
2014-Nov-14 23:00N 46°53' W 026°56'1 1.0 1011.0 13.1
2014-Nov-14 22:00N 46°53' W 026°58'1 1.0 1010.2 13.1
2014-Nov-14 21:00N 46°54' W 026°59'1 0.8 1009.6 13.2
2014-Nov-14 20:00N 46°54' W 027°00'1 1.0 1008.9 13.3
2014-Nov-14 19:00N 46°55' W 027°01'1 1.0 1008.1 13.3
2014-Nov-14 18:00N 46°55' W 027°02'1 0.8 1007.3 13.3
2014-Nov-14 17:00N 46°55' W 027°04'1 1.0 1006.2 13.3
2014-Nov-14 16:00N 46°56' W 027°05'0 0.4 1005.5 13.3
2014-Nov-14 15:00N 46°56' W 027°05'1 1.0 1005.1 13.3
2014-Nov-14 14:00N 46°56' W 027°07'0 0.4 1004.8 13.3
2014-Nov-14 13:00N 46°56' W 027°07'1 1.0 1004.8 13.2
2014-Nov-14 12:00N 46°57' W 027°08'1 0.7 1004.5 13.2
2014-Nov-14 11:00N 46°58' W 027°09'1 1.0 1003.7 13.1
2014-Nov-14 10:00N 46°58' W 027°10'1 0.8 1003.1 13.1
2014-Nov-14 09:00N 46°58' W 027°11'1 1.0 1002.3 13.1
2014-Nov-14 08:00N 46°59' W 027°13'1 0.8 1001.7 13.1
2014-Nov-14 07:00N 46°59' W 027°14'1 0.7 1000.8 13.0
2014-Nov-14 06:00N 46°59' W 027°14'1 1.0 1000.3 13.0
2014-Nov-14 05:00N 47°00' W 027°16'0 0.4 999.5 13.0
2014-Nov-14 04:00N 47°00' W 027°16'1 1.0 998.9 13.0
2014-Nov-14 03:00N 47°01' W 027°17'0 0.0 998.3 13.0
2014-Nov-14 02:00N 47°01' W 027°17'1 0.7 997.7 12.9
2014-Nov-14 01:00N 47°01' W 027°18'1 0.7 997.0 12.9
2014-Nov-14 00:00N 47°02' W 027°19'1 0.6 995.7 13.0
2014-Nov-13 23:00N 47°02' W 027°19'1 1.5 994.7 13.0
2014-Nov-13 22:00N 47°04' W 027°20'1 0.7 993.6 13.0
2014-Nov-13 21:00N 47°04' W 027°20'1 0.7 992.6 13.0
2014-Nov-13 20:00N 47°05' W 027°21'1 0.8 991.7 13.1
2014-Nov-13 19:00N 47°05' W 027°22'1 1.0 990.9 13.0
2014-Nov-13 18:00N 47°05' W 027°23'0 0.4 990.1 13.0
2014-Nov-13 17:00N 47°05' W 027°24'1 1.0 989.4 13.0
2014-Nov-13 16:00N 47°06' W 027°25'0 0.4 988.5 12.9
2014-Nov-13 15:00N 47°06' W 027°26'1 0.7 988.0 12.9
2014-Nov-13 14:00N 47°07' W 027°26'0 0.4 987.3 12.9
2014-Nov-13 13:00N 47°07' W 027°27'0 0.4 986.7 13.0
2014-Nov-13 12:00N 47°07' W 027°28'1 0.7 986.3 13.2
2014-Nov-13 11:00N 47°07' W 027°28'1 0.6 985.8 13.1
2014-Nov-13 10:00N 47°08' W 027°28'1 1.3 985.5 13.2
2014-Nov-13 09:00N 47°09' W 027°29'1 1.0 984.7 13.2
2014-Nov-13 08:00N 47°10' W 027°30'1 1.0 984.4 13.4
2014-Nov-13 07:00N 47°10' W 027°31'1 0.8 983.8 13.4
2014-Nov-13 06:00N 47°10' W 027°32'1 1.4 983.8 13.4
2014-Nov-13 05:00N 47°11' W 027°34'   983.8 13.4

Dump ship's entire track history